Terminal Aerodrome Forecast
Issued by NWS

Home | Current Version | Previous Version | Graphics & Text | Print | Product List | Glossary On
Versions: 1 2 3 4 5 6 7 8 9 10 11 12 13 14 15 16 17
702
FTUS43 KBIS 191128
TAFMOT
TAF
KMOT 191128Z 1912/2012 19007KT P6SM SCT250 WS020/22030KT
     FM191600 21010KT P6SM FEW300
     FM192300 17007KT P6SM SKC
     FM200600 15006KT P6SM SCT150=

USA.gov is the U.S. government's official web portal to all federal, state and local government web resources and services.